sensor_id;sensor_type;location;lat;lon;timestamp;P1;durP1;ratioP1;P2;durP2;ratioP2
8401;SDS011;4238;48.404;9.498;2023-07-13T04:02:33;2.60;;;2.50;;
8401;SDS011;4238;48.404;9.498;2023-07-13T04:05:02;4.32;;;2.30;;
8401;SDS011;4238;48.404;9.498;2023-07-13T04:07:29;6.25;;;2.78;;
8401;SDS011;4238;48.404;9.498;2023-07-13T04:09:56;2.50;;;2.30;;
8401;SDS011;4238;48.404;9.498;2023-07-13T04:12:23;4.03;;;2.53;;
8401;SDS011;4238;48.404;9.498;2023-07-13T04:14:50;4.20;;;2.72;;
8401;SDS011;4238;48.404;9.498;2023-07-13T04:17:17;2.53;;;2.33;;
8401;SDS011;4238;48.404;9.498;2023-07-13T04:19:45;3.72;;;2.63;;
8401;SDS011;4238;48.404;9.498;2023-07-13T04:22:13;2.67;;;2.47;;
8401;SDS011;4238;48.404;9.498;2023-07-13T04:24:40;2.17;;;2.08;;
8401;SDS011;4238;48.404;9.498;2023-07-13T04:27:07;3.00;;;2.35;;
8401;SDS011;4238;48.404;9.498;2023-07-13T04:29:34;3.25;;;2.58;;
8401;SDS011;4238;48.404;9.498;2023-07-13T04:32:01;4.57;;;2.55;;
8401;SDS011;4238;48.404;9.498;2023-07-13T04:34:28;3.35;;;2.80;;
8401;SDS011;4238;48.404;9.498;2023-07-13T04:36:57;2.70;;;2.50;;
8401;SDS011;4238;48.404;9.498;2023-07-13T04:39:24;3.20;;;2.72;;
8401;SDS011;4238;48.404;9.498;2023-07-13T04:41:51;3.50;;;2.22;;
8401;SDS011;4238;48.404;9.498;2023-07-13T04:44:18;2.75;;;2.60;;
8401;SDS011;4238;48.404;9.498;2023-07-13T04:46:44;3.58;;;3.03;;
8401;SDS011;4238;48.404;9.498;2023-07-13T04:49:11;3.13;;;2.45;;
8401;SDS011;4238;48.404;9.498;2023-07-13T04:51:38;2.20;;;2.10;;
8401;SDS011;4238;48.404;9.498;2023-07-13T04:54:06;3.40;;;2.40;;
8401;SDS011;4238;48.404;9.498;2023-07-13T04:56:33;2.05;;;1.90;;
8401;SDS011;4238;48.404;9.498;2023-07-13T04:59:00;2.55;;;2.35;;
8401;SDS011;4238;48.404;9.498;2023-07-13T05:01:27;2.90;;;2.45;;
8401;SDS011;4238;48.404;9.498;2023-07-13T05:03:54;2.67;;;2.47;;
8401;SDS011;4238;48.404;9.498;2023-07-13T05:06:23;2.85;;;2.65;;
8401;SDS011;4238;48.404;9.498;2023-07-13T05:08:50;2.72;;;2.53;;
8401;SDS011;4238;48.404;9.498;2023-07-13T05:11:18;5.32;;;2.90;;
8401;SDS011;4238;48.404;9.498;2023-07-13T05:13:45;2.72;;;2.53;;
8401;SDS011;4238;48.404;9.498;2023-07-13T05:16:12;3.35;;;2.58;;
8401;SDS011;4238;48.404;9.498;2023-07-13T05:18:39;3.17;;;2.80;;
8401;SDS011;4238;48.404;9.498;2023-07-13T05:21:08;4.43;;;2.90;;
8401;SDS011;4238;48.404;9.498;2023-07-13T05:23:36;2.80;;;2.63;;
8401;SDS011;4238;48.404;9.498;2023-07-13T05:26:04;3.05;;;2.65;;
8401;SDS011;4238;48.404;9.498;2023-07-13T05:28:32;4.93;;;2.50;;
8401;SDS011;4238;48.404;9.498;2023-07-13T05:30:59;2.83;;;2.63;;
8401;SDS011;4238;48.404;9.498;2023-07-13T05:33:26;3.22;;;2.92;;
8401;SDS011;4238;48.404;9.498;2023-07-13T05:35:53;2.92;;;2.72;;
8401;SDS011;4238;48.404;9.498;2023-07-13T05:38:20;3.53;;;2.90;;
8401;SDS011;4238;48.404;9.498;2023-07-13T05:40:47;2.88;;;2.60;;
8401;SDS011;4238;48.404;9.498;2023-07-13T05:43:14;4.95;;;2.78;;
8401;SDS011;4238;48.404;9.498;2023-07-13T05:45:43;6.15;;;2.70;;
8401;SDS011;4238;48.404;9.498;2023-07-13T05:48:10;2.33;;;2.22;;
8401;SDS011;4238;48.404;9.498;2023-07-13T05:50:36;2.38;;;2.25;;
8401;SDS011;4238;48.404;9.498;2023-07-13T05:53:03;3.60;;;2.25;;
8401;SDS011;4238;48.404;9.498;2023-07-13T05:55:31;6.25;;;2.80;;
8401;SDS011;4238;48.404;9.498;2023-07-13T05:57:58;3.20;;;2.90;;
8401;SDS011;4238;48.404;9.498;2023-07-13T06:00:25;3.42;;;2.63;;
8401;SDS011;4238;48.404;9.498;2023-07-13T06:02:54;3.47;;;2.80;;
8401;SDS011;4238;48.404;9.498;2023-07-13T06:05:23;5.63;;;2.78;;
8401;SDS011;4238;48.404;9.498;2023-07-13T06:07:50;2.70;;;2.50;;
8401;SDS011;4238;48.404;9.498;2023-07-13T06:10:17;2.65;;;2.45;;
8401;SDS011;4238;48.404;9.498;2023-07-13T06:12:44;2.78;;;2.58;;
8401;SDS011;4238;48.404;9.498;2023-07-13T06:15:11;5.40;;;2.67;;
8401;SDS011;4238;48.404;9.498;2023-07-13T06:17:38;3.53;;;2.53;;
8401;SDS011;4238;48.404;9.498;2023-07-13T06:20:07;4.07;;;2.65;;
8401;SDS011;4238;48.404;9.498;2023-07-13T06:22:34;4.18;;;2.38;;
8401;SDS011;4238;48.404;9.498;2023-07-13T06:25:01;2.65;;;2.45;;
8401;SDS011;4238;48.404;9.498;2023-07-13T06:27:28;3.10;;;2.58;;
8401;SDS011;4238;48.404;9.498;2023-07-13T06:29:55;2.10;;;2.00;;
8401;SDS011;4238;48.404;9.498;2023-07-13T06:32:22;2.53;;;2.30;;
8401;SDS011;4238;48.404;9.498;2023-07-13T06:34:48;2.50;;;2.30;;
8401;SDS011;4238;48.404;9.498;2023-07-13T06:37:18;2.35;;;2.20;;
8401;SDS011;4238;48.404;9.498;2023-07-13T06:39:45;2.20;;;2.10;;
8401;SDS011;4238;48.404;9.498;2023-07-13T06:42:11;3.58;;;2.85;;
8401;SDS011;4238;48.404;9.498;2023-07-13T06:44:38;3.20;;;2.45;;
8401;SDS011;4238;48.404;9.498;2023-07-13T06:47:05;3.20;;;3.00;;
8401;SDS011;4238;48.404;9.498;2023-07-13T06:49:32;2.50;;;2.35;;
8401;SDS011;4238;48.404;9.498;2023-07-13T06:51:59;2.65;;;2.45;;
8401;SDS011;4238;48.404;9.498;2023-07-13T06:54:28;5.03;;;2.75;;
8401;SDS011;4238;48.404;9.498;2023-07-13T06:56:54;2.85;;;2.65;;
8401;SDS011;4238;48.404;9.498;2023-07-13T06:59:21;2.80;;;2.50;;
8401;SDS011;4238;48.404;9.498;2023-07-13T07:01:48;2.70;;;2.50;;
8401;SDS011;4238;48.404;9.498;2023-07-13T07:04:15;3.08;;;2.72;;
8401;SDS011;4238;48.404;9.498;2023-07-13T07:06:42;3.90;;;2.53;;
8401;SDS011;4238;48.404;9.498;2023-07-13T07:09:10;2.58;;;2.38;;
8401;SDS011;4238;48.404;9.498;2023-07-13T07:11:38;3.05;;;2.50;;
8401;SDS011;4238;48.404;9.498;2023-07-13T07:14:05;3.22;;;2.55;;
8401;SDS011;4238;48.404;9.498;2023-07-13T07:16:31;2.58;;;2.38;;
8401;SDS011;4238;48.404;9.498;2023-07-13T07:18:58;2.85;;;2.20;;
8401;SDS011;4238;48.404;9.498;2023-07-13T07:21:25;4.25;;;2.58;;
8401;SDS011;4238;48.404;9.498;2023-07-13T07:23:52;3.30;;;2.72;;
8401;SDS011;4238;48.404;9.498;2023-07-13T07:26:19;3.00;;;2.75;;
8401;SDS011;4238;48.404;9.498;2023-07-13T07:28:47;2.75;;;1.73;;
8401;SDS011;4238;48.404;9.498;2023-07-13T07:31:14;1.90;;;1.80;;
8401;SDS011;4238;48.404;9.498;2023-07-13T07:33:41;2.65;;;2.45;;
8401;SDS011;4238;48.404;9.498;2023-07-13T07:36:08;3.50;;;2.50;;
8401;SDS011;4238;48.404;9.498;2023-07-13T07:38:35;1.90;;;1.80;;
8401;SDS011;4238;48.404;9.498;2023-07-13T07:41:02;1.63;;;1.52;;
8401;SDS011;4238;48.404;9.498;2023-07-13T07:43:30;1.88;;;1.77;;
8401;SDS011;4238;48.404;9.498;2023-07-13T07:45:59;2.50;;;2.05;;
8401;SDS011;4238;48.404;9.498;2023-07-13T07:48:26;3.58;;;2.22;;
8401;SDS011;4238;48.404;9.498;2023-07-13T07:50:52;1.88;;;1.75;;
8401;SDS011;4238;48.404;9.498;2023-07-13T07:53:19;3.38;;;2.10;;
8401;SDS011;4238;48.404;9.498;2023-07-13T07:55:46;2.17;;;2.08;;
8401;SDS011;4238;48.404;9.498;2023-07-13T07:58:13;1.83;;;1.73;;
8401;SDS011;4238;48.404;9.498;2023-07-13T08:00:41;2.75;;;1.80;;
8401;SDS011;4238;48.404;9.498;2023-07-13T08:03:09;2.30;;;1.73;;
8401;SDS011;4238;48.404;9.498;2023-07-13T08:05:36;3.53;;;1.83;;
8401;SDS011;4238;48.404;9.498;2023-07-13T08:08:03;2.25;;;1.77;;
8401;SDS011;4238;48.404;9.498;2023-07-13T08:10:30;2.22;;;1.88;;
8401;SDS011;4238;48.404;9.498;2023-07-13T08:12:57;3.58;;;2.10;;
8401;SDS011;4238;48.404;9.498;2023-07-13T08:15:24;2.05;;;1.85;;
8401;SDS011;4238;48.404;9.498;2023-07-13T08:17:51;2.53;;;2.33;;
8401;SDS011;4238;48.404;9.498;2023-07-13T08:20:19;2.15;;;2.03;;
8401;SDS011;4238;48.404;9.498;2023-07-13T08:22:46;2.30;;;2.10;;
8401;SDS011;4238;48.404;9.498;2023-07-13T08:25:13;2.78;;;1.95;;
8401;SDS011;4238;48.404;9.498;2023-07-13T08:27:41;2.83;;;1.95;;
8401;SDS011;4238;48.404;9.498;2023-07-13T08:30:08;3.97;;;2.22;;
8401;SDS011;4238;48.404;9.498;2023-07-13T08:32:35;6.82;;;2.33;;
8401;SDS011;4238;48.404;9.498;2023-07-13T08:35:03;4.30;;;2.08;;
8401;SDS011;4238;48.404;9.498;2023-07-13T08:37:31;2.40;;;2.15;;
8401;SDS011;4238;48.404;9.498;2023-07-13T08:39:58;2.40;;;2.20;;
8401;SDS011;4238;48.404;9.498;2023-07-13T08:42:29;2.42;;;2.20;;
8401;SDS011;4238;48.404;9.498;2023-07-13T08:45:06;2.55;;;2.03;;
8401;SDS011;4238;48.404;9.498;2023-07-13T08:47:40;2.42;;;2.22;;
8401;SDS011;4238;48.404;9.498;2023-07-13T08:50:15;2.35;;;2.20;;
8401;SDS011;4238;48.404;9.498;2023-07-13T08:52:46;3.50;;;2.35;;
8401;SDS011;4238;48.404;9.498;2023-07-13T08:55:14;2.53;;;2.10;;
8401;SDS011;4238;48.404;9.498;2023-07-13T08:57:45;4.10;;;2.30;;
8401;SDS011;4238;48.404;9.498;2023-07-13T09:10:31;4.07;;;2.30;;
8401;SDS011;4238;48.404;9.498;2023-07-13T09:13:06;2.20;;;2.10;;
8401;SDS011;4238;48.404;9.498;2023-07-13T09:15:43;3.63;;;2.38;;
8401;SDS011;4238;48.404;9.498;2023-07-13T09:18:13;2.30;;;2.20;;
8401;SDS011;4238;48.404;9.498;2023-07-13T09:20:46;2.20;;;2.00;;
8401;SDS011;4238;48.404;9.498;2023-07-13T09:23:19;2.85;;;2.03;;
8401;SDS011;4238;48.404;9.498;2023-07-13T09:25:48;2.97;;;2.13;;
8401;SDS011;4238;48.404;9.498;2023-07-13T09:28:22;2.17;;;2.08;;
8401;SDS011;4238;48.404;9.498;2023-07-13T09:30:51;2.75;;;2.55;;
8401;SDS011;4238;48.404;9.498;2023-07-13T09:33:22;2.67;;;2.28;;
8401;SDS011;4238;48.404;9.498;2023-07-13T09:35:49;3.78;;;2.20;;
8401;SDS011;4238;48.404;9.498;2023-07-13T09:38:17;2.50;;;2.30;;
8401;SDS011;4238;48.404;9.498;2023-07-13T09:40:53;3.17;;;1.92;;
8401;SDS011;4238;48.404;9.498;2023-07-13T09:43:27;2.10;;;1.80;;
8401;SDS011;4238;48.404;9.498;2023-07-13T09:45:55;2.20;;;1.98;;
8401;SDS011;4238;48.404;9.498;2023-07-13T09:48:22;3.00;;;2.25;;
8401;SDS011;4238;48.404;9.498;2023-07-13T09:50:49;3.05;;;2.00;;
8401;SDS011;4238;48.404;9.498;2023-07-13T09:53:22;2.53;;;2.03;;
8401;SDS011;4238;48.404;9.498;2023-07-13T09:55:49;2.15;;;1.80;;
8401;SDS011;4238;48.404;9.498;2023-07-13T09:58:18;2.30;;;2.20;;
8401;SDS011;4238;48.404;9.498;2023-07-13T10:00:54;1.98;;;1.60;;
8401;SDS011;4238;48.404;9.498;2023-07-13T10:03:23;1.98;;;1.88;;
8401;SDS011;4238;48.404;9.498;2023-07-13T10:05:52;2.45;;;1.95;;
8401;SDS011;4238;48.404;9.498;2023-07-13T10:08:21;2.28;;;2.08;;
8401;SDS011;4238;48.404;9.498;2023-07-13T10:10:52;1.85;;;1.75;;
8401;SDS011;4238;48.404;9.498;2023-07-13T10:13:26;4.22;;;1.80;;
8401;SDS011;4238;48.404;9.498;2023-07-13T10:16:01;3.28;;;2.13;;
8401;SDS011;4238;48.404;9.498;2023-07-13T10:18:31;1.88;;;1.65;;
8401;SDS011;4238;48.404;9.498;2023-07-13T10:21:13;2.15;;;1.85;;
8401;SDS011;4238;48.404;9.498;2023-07-13T10:23:43;2.95;;;1.48;;
8401;SDS011;4238;48.404;9.498;2023-07-13T10:26:25;2.22;;;1.88;;
8401;SDS011;4238;48.404;9.498;2023-07-13T10:28:57;1.90;;;1.65;;
8401;SDS011;4238;48.404;9.498;2023-07-13T10:31:30;1.83;;;1.73;;
8401;SDS011;4238;48.404;9.498;2023-07-13T10:33:57;4.35;;;1.83;;
8401;SDS011;4238;48.404;9.498;2023-07-13T10:36:28;2.28;;;2.08;;
8401;SDS011;4238;48.404;9.498;2023-07-13T10:39:00;2.17;;;1.83;;
8401;SDS011;4238;48.404;9.498;2023-07-13T10:41:30;2.80;;;2.00;;
8401;SDS011;4238;48.404;9.498;2023-07-13T10:44:02;3.08;;;1.88;;
8401;SDS011;4238;48.404;9.498;2023-07-13T10:46:33;3.28;;;1.75;;
8401;SDS011;4238;48.404;9.498;2023-07-13T10:49:01;3.30;;;1.80;;
8401;SDS011;4238;48.404;9.498;2023-07-13T10:51:31;2.63;;;1.83;;
8401;SDS011;4238;48.404;9.498;2023-07-13T10:54:11;2.67;;;2.08;;
8401;SDS011;4238;48.404;9.498;2023-07-13T10:56:42;2.10;;;2.00;;
8401;SDS011;4238;48.404;9.498;2023-07-13T10:59:12;1.83;;;1.73;;
8401;SDS011;4238;48.404;9.498;2023-07-13T11:01:49;2.15;;;2.05;;
8401;SDS011;4238;48.404;9.498;2023-07-13T11:04:19;4.25;;;2.63;;
8401;SDS011;4238;48.404;9.498;2023-07-13T11:06:48;3.05;;;1.67;;
8401;SDS011;4238;48.404;9.498;2023-07-13T11:09:19;2.05;;;1.77;;
8401;SDS011;4238;48.404;9.498;2023-07-13T11:12:08;2.05;;;1.95;;
8401;SDS011;4238;48.404;9.498;2023-07-13T11:17:46;2.08;;;1.90;;
8401;SDS011;4238;48.404;9.498;2023-07-13T11:20:22;2.83;;;2.15;;
8401;SDS011;4238;48.404;9.498;2023-07-13T11:23:07;2.28;;;1.98;;
8401;SDS011;4238;48.404;9.498;2023-07-13T11:25:43;3.33;;;2.05;;
8401;SDS011;4238;48.404;9.498;2023-07-13T11:28:16;2.63;;;1.67;;
8401;SDS011;4238;48.404;9.498;2023-07-13T11:30:48;1.95;;;1.80;;
8401;SDS011;4238;48.404;9.498;2023-07-13T11:33:27;2.95;;;1.90;;
8401;SDS011;4238;48.404;9.498;2023-07-13T11:36:02;3.17;;;1.83;;
8401;SDS011;4238;48.404;9.498;2023-07-13T11:38:32;2.60;;;1.60;;
8401;SDS011;4238;48.404;9.498;2023-07-13T11:41:02;2.10;;;1.90;;
8401;SDS011;4238;48.404;9.498;2023-07-13T11:43:32;2.78;;;1.73;;
8401;SDS011;4238;48.404;9.498;2023-07-13T11:46:13;5.10;;;2.42;;
8401;SDS011;4238;48.404;9.498;2023-07-13T11:48:41;2.10;;;1.70;;
8401;SDS011;4238;48.404;9.498;2023-07-13T11:51:14;2.25;;;1.85;;
8401;SDS011;4238;48.404;9.498;2023-07-13T11:53:46;2.95;;;1.73;;
8401;SDS011;4238;48.404;9.498;2023-07-13T11:56:15;2.22;;;2.05;;
8401;SDS011;4238;48.404;9.498;2023-07-13T11:58:42;2.13;;;2.00;;
8401;SDS011;4238;48.404;9.498;2023-07-13T12:01:15;1.90;;;1.80;;
8401;SDS011;4238;48.404;9.498;2023-07-13T12:03:46;1.92;;;1.75;;
8401;SDS011;4238;48.404;9.498;2023-07-13T12:06:23;2.10;;;1.90;;
8401;SDS011;4238;48.404;9.498;2023-07-13T12:08:55;2.00;;;1.67;;
8401;SDS011;4238;48.404;9.498;2023-07-13T12:11:24;3.22;;;2.33;;
8401;SDS011;4238;48.404;9.498;2023-07-13T12:13:51;2.58;;;1.70;;
8401;SDS011;4238;48.404;9.498;2023-07-13T12:16:21;1.60;;;1.50;;
8401;SDS011;4238;48.404;9.498;2023-07-13T12:18:58;2.60;;;1.80;;
8401;SDS011;4238;48.404;9.498;2023-07-13T12:21:28;3.70;;;2.13;;
8401;SDS011;4238;48.404;9.498;2023-07-13T12:23:58;2.75;;;2.05;;
8401;SDS011;4238;48.404;9.498;2023-07-13T12:26:27;2.00;;;1.80;;
8401;SDS011;4238;48.404;9.498;2023-07-13T12:28:56;2.38;;;2.17;;
8401;SDS011;4238;48.404;9.498;2023-07-13T12:31:30;2.25;;;2.08;;
8401;SDS011;4238;48.404;9.498;2023-07-13T12:34:01;2.25;;;2.05;;
8401;SDS011;4238;48.404;9.498;2023-07-13T12:36:30;2.65;;;1.80;;
8401;SDS011;4238;48.404;9.498;2023-07-13T12:39:00;3.08;;;2.00;;
8401;SDS011;4238;48.404;9.498;2023-07-13T12:41:30;2.38;;;2.10;;
8401;SDS011;4238;48.404;9.498;2023-07-13T12:43:59;2.33;;;1.88;;
8401;SDS011;4238;48.404;9.498;2023-07-13T12:46:28;2.13;;;1.85;;
8401;SDS011;4238;48.404;9.498;2023-07-13T12:48:56;1.75;;;1.65;;
8401;SDS011;4238;48.404;9.498;2023-07-13T12:51:24;1.77;;;1.60;;
8401;SDS011;4238;48.404;9.498;2023-07-13T12:53:55;1.77;;;1.67;;
8401;SDS011;4238;48.404;9.498;2023-07-13T12:56:26;1.92;;;1.83;;
8401;SDS011;4238;48.404;9.498;2023-07-13T12:58:56;2.15;;;1.83;;
8401;SDS011;4238;48.404;9.498;2023-07-13T13:01:25;2.08;;;1.80;;
8401;SDS011;4238;48.404;9.498;2023-07-13T13:03:55;1.83;;;1.73;;
8401;SDS011;4238;48.404;9.498;2023-07-13T13:06:23;1.88;;;1.75;;
8401;SDS011;4238;48.404;9.498;2023-07-13T13:08:53;2.28;;;2.03;;
8401;SDS011;4238;48.404;9.498;2023-07-13T13:11:23;3.40;;;1.70;;
8401;SDS011;4238;48.404;9.498;2023-07-13T13:13:51;2.42;;;1.85;;
8401;SDS011;4238;48.404;9.498;2023-07-13T13:16:20;2.85;;;1.90;;
8401;SDS011;4238;48.404;9.498;2023-07-13T13:18:51;1.90;;;1.65;;
8401;SDS011;4238;48.404;9.498;2023-07-13T13:21:19;2.90;;;1.90;;
8401;SDS011;4238;48.404;9.498;2023-07-13T13:23:47;3.20;;;2.17;;
8401;SDS011;4238;48.404;9.498;2023-07-13T13:26:15;1.88;;;1.77;;
8401;SDS011;4238;48.404;9.498;2023-07-13T13:28:42;2.28;;;2.10;;
8401;SDS011;4238;48.404;9.498;2023-07-13T13:31:10;1.75;;;1.63;;
8401;SDS011;4238;48.404;9.498;2023-07-13T13:33:38;4.60;;;1.85;;
8401;SDS011;4238;48.404;9.498;2023-07-13T13:36:13;3.03;;;1.90;;
8401;SDS011;4238;48.404;9.498;2023-07-13T13:38:42;4.25;;;1.75;;
8401;SDS011;4238;48.404;9.498;2023-07-13T13:41:09;2.63;;;2.08;;
8401;SDS011;4238;48.404;9.498;2023-07-13T13:43:38;1.98;;;1.50;;
8401;SDS011;4238;48.404;9.498;2023-07-13T13:46:09;2.40;;;1.52;;
8401;SDS011;4238;48.404;9.498;2023-07-13T13:48:41;1.73;;;1.63;;
8401;SDS011;4238;48.404;9.498;2023-07-13T13:51:14;4.07;;;1.92;;
8401;SDS011;4238;48.404;9.498;2023-07-13T13:53:43;2.10;;;1.90;;
8401;SDS011;4238;48.404;9.498;2023-07-13T13:56:10;1.95;;;1.85;;
8401;SDS011;4238;48.404;9.498;2023-07-13T13:58:37;1.95;;;1.60;;
8401;SDS011;4238;48.404;9.498;2023-07-13T14:01:04;4.25;;;1.80;;
8401;SDS011;4238;48.404;9.498;2023-07-13T14:03:37;2.28;;;1.63;;
8401;SDS011;4238;48.404;9.498;2023-07-13T14:06:04;3.35;;;2.17;;
8401;SDS011;4238;48.404;9.498;2023-07-13T14:08:32;1.90;;;1.80;;
8401;SDS011;4238;48.404;9.498;2023-07-13T14:10:59;2.72;;;1.80;;
8401;SDS011;4238;48.404;9.498;2023-07-13T14:13:27;2.22;;;1.75;;
8401;SDS011;4238;48.404;9.498;2023-07-13T14:15:56;4.60;;;2.00;;
8401;SDS011;4238;48.404;9.498;2023-07-13T14:18:24;1.77;;;1.67;;
8401;SDS011;4238;48.404;9.498;2023-07-13T14:20:51;3.28;;;1.90;;
8401;SDS011;4238;48.404;9.498;2023-07-13T14:23:18;1.80;;;1.70;;
8401;SDS011;4238;48.404;9.498;2023-07-13T14:25:46;3.10;;;1.90;;
8401;SDS011;4238;48.404;9.498;2023-07-13T14:28:17;1.88;;;1.60;;
8401;SDS011;4238;48.404;9.498;2023-07-13T14:30:47;3.10;;;1.90;;
8401;SDS011;4238;48.404;9.498;2023-07-13T14:33:14;3.67;;;1.65;;
8401;SDS011;4238;48.404;9.498;2023-07-13T14:35:41;2.35;;;2.00;;
8401;SDS011;4238;48.404;9.498;2023-07-13T14:38:09;1.98;;;1.80;;
8401;SDS011;4238;48.404;9.498;2023-07-13T14:40:39;1.80;;;1.70;;
8401;SDS011;4238;48.404;9.498;2023-07-13T14:43:09;2.25;;;2.05;;
8401;SDS011;4238;48.404;9.498;2023-07-13T14:45:38;2.00;;;1.77;;
8401;SDS011;4238;48.404;9.498;2023-07-13T14:48:12;1.65;;;1.55;;
8401;SDS011;4238;48.404;9.498;2023-07-13T14:50:42;1.73;;;1.70;;
8401;SDS011;4238;48.404;9.498;2023-07-13T14:53:09;1.75;;;1.65;;
8401;SDS011;4238;48.404;9.498;2023-07-13T14:55:37;2.28;;;1.80;;
8401;SDS011;4238;48.404;9.498;2023-07-13T14:58:03;1.58;;;1.48;;
8401;SDS011;4238;48.404;9.498;2023-07-13T15:00:32;2.05;;;1.77;;
8401;SDS011;4238;48.404;9.498;2023-07-13T15:02:59;2.67;;;2.05;;
8401;SDS011;4238;48.404;9.498;2023-07-13T15:05:27;2.75;;;1.70;;
8401;SDS011;4238;48.404;9.498;2023-07-13T15:07:56;1.95;;;1.70;;
8401;SDS011;4238;48.404;9.498;2023-07-13T15:10:26;2.50;;;2.10;;
8401;SDS011;4238;48.404;9.498;2023-07-13T15:12:56;2.47;;;1.80;;
8401;SDS011;4238;48.404;9.498;2023-07-13T15:15:25;3.00;;;2.08;;
8401;SDS011;4238;48.404;9.498;2023-07-13T15:17:54;1.95;;;1.85;;
8401;SDS011;4238;48.404;9.498;2023-07-13T15:20:25;3.60;;;1.63;;
8401;SDS011;4238;48.404;9.498;2023-07-13T15:22:53;2.88;;;1.77;;
8401;SDS011;4238;48.404;9.498;2023-07-13T15:25:21;1.90;;;1.80;;
8401;SDS011;4238;48.404;9.498;2023-07-13T15:27:49;2.72;;;1.80;;
8401;SDS011;4238;48.404;9.498;2023-07-13T15:30:17;2.25;;;1.85;;
8401;SDS011;4238;48.404;9.498;2023-07-13T15:32:44;1.90;;;1.80;;
8401;SDS011;4238;48.404;9.498;2023-07-13T15:35:17;1.92;;;1.80;;
8401;SDS011;4238;48.404;9.498;2023-07-13T15:37:46;3.22;;;1.85;;
8401;SDS011;4238;48.404;9.498;2023-07-13T15:40:15;2.28;;;2.13;;
8401;SDS011;4238;48.404;9.498;2023-07-13T15:42:43;2.65;;;1.73;;
8401;SDS011;4238;48.404;9.498;2023-07-13T15:45:15;1.95;;;1.80;;
8401;SDS011;4238;48.404;9.498;2023-07-13T15:47:44;2.17;;;1.95;;
8401;SDS011;4238;48.404;9.498;2023-07-13T15:50:12;2.63;;;1.90;;
8401;SDS011;4238;48.404;9.498;2023-07-13T15:52:41;2.22;;;1.75;;
8401;SDS011;4238;48.404;9.498;2023-07-13T15:55:10;1.80;;;1.70;;
8401;SDS011;4238;48.404;9.498;2023-07-13T15:57:38;2.53;;;1.65;;
8401;SDS011;4238;48.404;9.498;2023-07-13T16:00:13;2.15;;;1.77;;
8401;SDS011;4238;48.404;9.498;2023-07-13T16:02:45;2.03;;;1.90;;
8401;SDS011;4238;48.404;9.498;2023-07-13T16:05:12;3.47;;;1.65;;
8401;SDS011;4238;48.404;9.498;2023-07-13T16:07:42;2.10;;;1.90;;
8401;SDS011;4238;48.404;9.498;2023-07-13T16:10:12;1.95;;;1.73;;
8401;SDS011;4238;48.404;9.498;2023-07-13T16:12:41;2.20;;;2.10;;
8401;SDS011;4238;48.404;9.498;2023-07-13T16:15:12;3.88;;;2.25;;
8401;SDS011;4238;48.404;9.498;2023-07-13T16:17:41;1.73;;;1.63;;
8401;SDS011;4238;48.404;9.498;2023-07-13T16:20:08;2.67;;;2.08;;
8401;SDS011;4238;48.404;9.498;2023-07-13T16:22:37;2.95;;;1.88;;
8401;SDS011;4238;48.404;9.498;2023-07-13T16:25:13;2.80;;;2.00;;
8401;SDS011;4238;48.404;9.498;2023-07-13T16:27:43;3.33;;;2.05;;
8401;SDS011;4238;48.404;9.498;2023-07-13T16:30:14;2.97;;;2.20;;
8401;SDS011;4238;48.404;9.498;2023-07-13T16:32:43;3.08;;;2.33;;
8401;SDS011;4238;48.404;9.498;2023-07-13T16:35:10;2.60;;;2.40;;
8401;SDS011;4238;48.404;9.498;2023-07-13T16:37:37;4.60;;;2.35;;
8401;SDS011;4238;48.404;9.498;2023-07-13T16:40:11;2.63;;;2.30;;
8401;SDS011;4238;48.404;9.498;2023-07-13T16:42:48;4.03;;;2.30;;
8401;SDS011;4238;48.404;9.498;2023-07-13T16:45:16;2.50;;;2.28;;
8401;SDS011;4238;48.404;9.498;2023-07-13T16:55:31;3.60;;;2.20;;
8401;SDS011;4238;48.404;9.498;2023-07-13T16:57:59;4.32;;;2.45;;
8401;SDS011;4238;48.404;9.498;2023-07-13T17:00:28;4.47;;;2.53;;
8401;SDS011;4238;48.404;9.498;2023-07-13T17:02:57;2.42;;;2.08;;
8401;SDS011;4238;48.404;9.498;2023-07-13T17:05:28;4.43;;;2.22;;
8401;SDS011;4238;48.404;9.498;2023-07-13T17:07:55;3.45;;;2.22;;
8401;SDS011;4238;48.404;9.498;2023-07-13T17:10:23;2.50;;;2.00;;
8401;SDS011;4238;48.404;9.498;2023-07-13T17:12:52;2.17;;;1.98;;
8401;SDS011;4238;48.404;9.498;2023-07-13T17:15:24;2.83;;;2.33;;
8401;SDS011;4238;48.404;9.498;2023-07-13T17:17:53;2.90;;;2.17;;
8401;SDS011;4238;48.404;9.498;2023-07-13T17:20:30;2.30;;;2.15;;
8401;SDS011;4238;48.404;9.498;2023-07-13T17:23:02;2.40;;;2.20;;
8401;SDS011;4238;48.404;9.498;2023-07-13T17:25:31;2.95;;;2.25;;
8401;SDS011;4238;48.404;9.498;2023-07-13T17:27:58;3.47;;;2.30;;
8401;SDS011;4238;48.404;9.498;2023-07-13T17:30:26;2.53;;;2.30;;
8401;SDS011;4238;48.404;9.498;2023-07-13T17:32:54;2.33;;;2.00;;
8401;SDS011;4238;48.404;9.498;2023-07-13T17:35:22;2.33;;;2.05;;
8401;SDS011;4238;48.404;9.498;2023-07-13T17:37:51;3.33;;;2.13;;
8401;SDS011;4238;48.404;9.498;2023-07-13T17:40:19;3.22;;;2.13;;
8401;SDS011;4238;48.404;9.498;2023-07-13T17:42:47;2.58;;;2.05;;
8401;SDS011;4238;48.404;9.498;2023-07-13T17:45:19;3.38;;;2.20;;
8401;SDS011;4238;48.404;9.498;2023-07-13T17:47:49;3.22;;;2.55;;
8401;SDS011;4238;48.404;9.498;2023-07-13T17:50:21;3.58;;;2.47;;
8401;SDS011;4238;48.404;9.498;2023-07-13T17:53:00;4.38;;;2.40;;
8401;SDS011;4238;48.404;9.498;2023-07-13T17:55:31;2.45;;;2.05;;
8401;SDS011;4238;48.404;9.498;2023-07-13T17:57:58;2.47;;;2.00;;
8401;SDS011;4238;48.404;9.498;2023-07-13T18:00:26;4.07;;;2.25;;
8401;SDS011;4238;48.404;9.498;2023-07-13T18:03:03;2.20;;;2.10;;
8401;SDS011;4238;48.404;9.498;2023-07-13T18:05:35;2.60;;;2.40;;
8401;SDS011;4238;48.404;9.498;2023-07-13T18:08:02;2.72;;;2.00;;
8401;SDS011;4238;48.404;9.498;2023-07-13T18:10:31;3.83;;;2.25;;
8401;SDS011;4238;48.404;9.498;2023-07-13T18:12:59;2.80;;;2.17;;
8401;SDS011;4238;48.404;9.498;2023-07-13T18:15:27;2.08;;;1.98;;
8401;SDS011;4238;48.404;9.498;2023-07-13T18:17:57;5.05;;;2.40;;
8401;SDS011;4238;48.404;9.498;2023-07-13T18:20:26;2.60;;;2.40;;
8401;SDS011;4238;48.404;9.498;2023-07-13T18:22:54;3.00;;;2.33;;
8401;SDS011;4238;48.404;9.498;2023-07-13T18:25:23;4.05;;;2.25;;
8401;SDS011;4238;48.404;9.498;2023-07-13T18:27:51;3.65;;;1.90;;
8401;SDS011;4238;48.404;9.498;2023-07-13T18:30:19;2.45;;;2.25;;
8401;SDS011;4238;48.404;9.498;2023-07-13T18:32:48;2.47;;;2.28;;
8401;SDS011;4238;48.404;9.498;2023-07-13T18:35:19;3.25;;;2.33;;
8401;SDS011;4238;48.404;9.498;2023-07-13T18:37:53;3.13;;;1.98;;
8401;SDS011;4238;48.404;9.498;2023-07-13T18:40:21;3.83;;;2.03;;
8401;SDS011;4238;48.404;9.498;2023-07-13T18:42:50;2.00;;;1.90;;
8401;SDS011;4238;48.404;9.498;2023-07-13T18:45:19;4.25;;;2.00;;
8401;SDS011;4238;48.404;9.498;2023-07-13T18:47:47;3.42;;;2.33;;
8401;SDS011;4238;48.404;9.498;2023-07-13T18:50:18;2.03;;;1.92;;
8401;SDS011;4238;48.404;9.498;2023-07-13T18:52:48;2.60;;;2.10;;
8401;SDS011;4238;48.404;9.498;2023-07-13T18:55:17;6.85;;;2.80;;
8401;SDS011;4238;48.404;9.498;2023-07-13T18:57:45;2.40;;;2.20;;
8401;SDS011;4238;48.404;9.498;2023-07-13T19:00:14;2.85;;;2.10;;
8401;SDS011;4238;48.404;9.498;2023-07-13T19:02:41;3.40;;;2.08;;
8401;SDS011;4238;48.404;9.498;2023-07-13T19:05:16;3.67;;;2.30;;
8401;SDS011;4238;48.404;9.498;2023-07-13T19:07:46;2.33;;;2.13;;
8401;SDS011;4238;48.404;9.498;2023-07-13T19:10:13;2.42;;;2.22;;
8401;SDS011;4238;48.404;9.498;2023-07-13T19:12:44;2.10;;;2.00;;
8401;SDS011;4238;48.404;9.498;2023-07-13T19:15:22;2.30;;;2.10;;
8401;SDS011;4238;48.404;9.498;2023-07-13T19:17:52;4.00;;;2.08;;
8401;SDS011;4238;48.404;9.498;2023-07-13T19:20:19;5.47;;;2.42;;
8401;SDS011;4238;48.404;9.498;2023-07-13T19:22:51;2.97;;;2.20;;
8401;SDS011;4238;48.404;9.498;2023-07-13T19:25:20;2.60;;;2.40;;
8401;SDS011;4238;48.404;9.498;2023-07-13T19:27:51;5.88;;;2.55;;
8401;SDS011;4238;48.404;9.498;2023-07-13T19:30:22;2.55;;;2.17;;
8401;SDS011;4238;48.404;9.498;2023-07-13T19:32:49;4.75;;;2.83;;
8401;SDS011;4238;48.404;9.498;2023-07-13T19:35:17;2.40;;;2.20;;
8401;SDS011;4238;48.404;9.498;2023-07-13T19:37:44;2.90;;;2.40;;
8401;SDS011;4238;48.404;9.498;2023-07-13T19:40:15;3.90;;;2.75;;
8401;SDS011;4238;48.404;9.498;2023-07-13T19:42:45;2.35;;;2.25;;
8401;SDS011;4238;48.404;9.498;2023-07-13T19:45:18;2.55;;;2.38;;
8401;SDS011;4238;48.404;9.498;2023-07-13T19:47:46;3.17;;;2.42;;
8401;SDS011;4238;48.404;9.498;2023-07-13T19:50:14;4.47;;;2.50;;